Terminal Aerodrome Forecast
Issued by NWS

Home | Current Version | Previous Version | Text Only | Print | Product List | Glossary On
Versions: 1 2 3 4 5 6 7 8 9 10 11 12 13 14 15 16 17 18 19 20 21 22 23
000
FTUS43 KGRR 021029 AAB
TAFJXN
TAF AMD
KJXN 021029Z 0210/0306 05004KT 1/4SM FG VV002
     FM021130 06005KT 1SM BR BKN003
     FM021300 06006KT 4SM BR BKN015
     FM021500 06006KT P6SM SCT020
     FM021800 07008KT P6SM SCT040=

USA.gov is the U.S. government's official web portal to all federal, state and local government web resources and services.